createdAt,value
2019-02-25T00:00:03.808Z,66.27
2019-02-25T00:10:02.726Z,66.28
2019-02-25T00:20:02.693Z,65.63
2019-02-25T00:30:03.454Z,66.67
2019-02-25T00:40:03.347Z,66.24
2019-02-25T00:50:03.518Z,63.84
2019-02-25T01:00:03.360Z,63.01
2019-02-25T01:10:02.736Z,66.44
2019-02-25T01:20:02.933Z,66.26
2019-02-25T01:30:04.089Z,64.86
2019-02-25T01:40:02.961Z,65.74
2019-02-25T01:50:02.902Z,64.65
2019-02-25T02:00:03.898Z,65.68
2019-02-25T02:10:03.568Z,65.78
2019-02-25T02:20:02.717Z,66.05
2019-02-25T02:30:03.819Z,66.19
2019-02-25T02:40:02.978Z,67.84
2019-02-25T02:50:02.789Z,67.69
2019-02-25T03:00:03.550Z,68.51
2019-02-25T03:10:03.297Z,67.86
2019-02-25T03:20:02.904Z,67.34
2019-02-25T03:30:04.057Z,68.54
2019-02-25T03:40:03.187Z,68.67
2019-02-25T03:50:03.044Z,69.45
2019-02-25T04:00:03.704Z,73.58
2019-02-25T04:10:03.780Z,74.83
2019-02-25T04:20:02.696Z,75.65
2019-02-25T04:30:03.554Z,75.96
2019-02-25T04:40:03.655Z,75.19
2019-02-25T04:50:02.622Z,73.76
2019-02-25T05:00:03.364Z,72.56
2019-02-25T05:10:02.955Z,72.71
2019-02-25T05:20:03.075Z,74.67
2019-02-25T05:30:03.670Z,76.00
2019-02-25T05:40:03.575Z,74.77
2019-02-25T05:50:02.577Z,71.70
2019-02-25T06:00:03.275Z,69.62
2019-02-25T06:10:02.932Z,67.11
2019-02-25T06:20:03.592Z,65.27
2019-02-25T06:30:03.398Z,63.74
2019-02-25T06:40:03.387Z,62.45
2019-02-25T06:50:03.134Z,60.97
2019-02-25T07:00:04.552Z,58.02
2019-02-25T07:10:02.909Z,55.63
2019-02-25T07:20:03.158Z,55.43
2019-02-25T07:30:03.588Z,54.01
2019-02-25T07:40:03.295Z,53.89
2019-02-25T07:50:04.292Z,51.33
2019-02-25T08:00:04.033Z,52.15
2019-02-25T08:10:02.786Z,52.72
2019-02-25T08:20:03.253Z,51.79
2019-02-25T08:30:06.429Z,50.11
2019-02-25T08:40:02.803Z,49.54
2019-02-25T08:50:02.864Z,49.00
2019-02-25T09:00:04.069Z,52.43
2019-02-25T09:10:03.463Z,54.24
2019-02-25T09:20:02.431Z,49.58
2019-02-25T09:30:03.651Z,51.10
2019-02-25T09:40:02.627Z,47.91
2019-02-25T09:50:02.611Z,46.16
2019-02-25T10:00:04.118Z,51.79
2019-02-25T10:10:03.078Z,46.02
2019-02-25T10:20:03.267Z,44.87
2019-02-25T10:30:04.784Z,44.58
2019-02-25T10:40:02.693Z,45.46
2019-02-25T10:50:05.335Z,44.59
2019-02-25T11:00:07.368Z,47.61
2019-02-25T11:10:02.990Z,44.55
2019-02-25T11:20:05.886Z,43.53
2019-02-25T11:30:03.680Z,44.09
2019-02-25T11:40:04.797Z,44.44
2019-02-25T11:50:03.270Z,41.93
2019-02-25T12:00:03.948Z,44.04
2019-02-25T12:10:02.782Z,43.50
2019-02-25T12:20:03.239Z,43.14
2019-02-25T12:30:03.696Z,43.91
2019-02-25T12:40:07.026Z,46.27
2019-02-25T12:50:02.958Z,45.06
2019-02-25T13:00:03.958Z,47.35
2019-02-25T13:10:03.109Z,49.32
2019-02-25T13:20:03.606Z,47.92
2019-02-25T13:30:03.997Z,48.65
2019-02-25T13:40:05.257Z,46.82
2019-02-25T13:50:03.118Z,46.40
2019-02-25T14:00:03.529Z,46.10
2019-02-25T14:10:03.260Z,46.63
2019-02-25T14:20:02.657Z,46.07
2019-02-25T14:30:03.755Z,47.04
2019-02-25T14:40:08.216Z,46.72
2019-02-25T14:50:03.185Z,46.41
2019-02-25T15:00:03.731Z,47.15
2019-02-25T15:10:06.353Z,47.97
2019-02-25T15:20:03.237Z,47.68
2019-02-25T15:30:03.894Z,47.81
2019-02-25T15:40:03.531Z,48.93
2019-02-25T15:50:06.689Z,50.31
2019-02-25T16:00:03.881Z,51.09
2019-02-25T16:10:09.166Z,51.79
2019-02-25T16:20:06.978Z,55.98
2019-02-25T16:30:06.229Z,57.45
2019-02-25T16:40:08.375Z,56.99
2019-02-25T16:50:03.580Z,57.35
2019-02-25T17:00:07.257Z,57.50
2019-02-25T17:10:05.782Z,57.35
2019-02-25T17:20:03.017Z,57.66
2019-02-25T17:30:03.954Z,58.98
2019-02-25T17:40:08.202Z,59.64
2019-02-25T17:50:06.334Z,61.77
2019-02-25T18:00:03.677Z,63.44
2019-02-25T18:10:07.584Z,63.55
2019-02-25T18:20:02.567Z,66.95
2019-02-25T18:30:03.815Z,66.52
2019-02-25T18:40:03.179Z,69.05
2019-02-25T18:50:03.118Z,69.93
2019-02-25T19:00:06.312Z,67.39
2019-02-25T19:10:02.740Z,71.29
2019-02-25T19:20:02.771Z,73.02
2019-02-25T19:30:03.670Z,74.33
2019-02-25T19:40:11.925Z,74.96
2019-02-25T19:50:07.339Z,75.67
2019-02-25T20:00:04.269Z,78.21
2019-02-25T20:10:03.171Z,76.09
2019-02-25T20:20:08.029Z,77.37
2019-02-25T20:30:07.216Z,76.59
2019-02-25T20:40:03.049Z,78.46
2019-02-25T20:50:05.720Z,80.17
2019-02-25T21:00:04.888Z,81.45
2019-02-25T21:10:07.903Z,80.60
2019-02-25T21:20:06.599Z,80.58
2019-02-25T21:30:07.824Z,80.49
2019-02-25T21:40:06.964Z,80.84
2019-02-25T21:50:07.313Z,80.97
2019-02-25T22:00:05.537Z,81.71
2019-02-25T22:10:04.604Z,80.96
2019-02-25T22:20:07.146Z,80.90
2019-02-25T22:30:07.293Z,81.64
2019-02-25T22:40:02.754Z,82.22
2019-02-25T22:50:06.273Z,82.73
2019-02-25T23:00:06.894Z,82.32
2019-02-25T23:10:03.341Z,82.37
2019-02-25T23:20:07.258Z,82.68
2019-02-25T23:30:04.267Z,83.59
2019-02-25T23:40:07.779Z,84.68
2019-02-25T23:50:06.908Z,85.70
